createdAt,value
2022-09-23T00:00:18.951Z,45.18
2022-09-23T00:02:20.724Z,45.17
2022-09-23T00:04:22.499Z,45.19
2022-09-23T00:06:24.278Z,45.14
2022-09-23T00:08:26.031Z,45.18
2022-09-23T00:10:28.585Z,45.10
2022-09-23T00:12:32.647Z,45.40
2022-09-23T00:14:34.317Z,45.72
2022-09-23T00:16:36.238Z,45.27
2022-09-23T00:18:38.166Z,45.21
2022-09-23T00:20:39.855Z,45.34
2022-09-23T00:22:41.561Z,45.30
2022-09-23T00:24:43.246Z,45.25
2022-09-23T00:26:44.954Z,45.21
2022-09-23T00:28:47.260Z,45.42
2022-09-23T00:30:48.994Z,45.21
2022-09-23T00:32:50.797Z,45.50
2022-09-23T00:34:52.449Z,45.36
2022-09-23T00:36:54.170Z,45.56
2022-09-23T00:38:56.032Z,45.05
2022-09-23T00:40:57.865Z,45.55
2022-09-23T00:42:59.507Z,45.47
2022-09-23T00:45:01.334Z,45.63
2022-09-23T00:47:03.121Z,45.43
2022-09-23T00:49:23.106Z,45.23
2022-09-23T00:51:27.298Z,45.16
2022-09-23T00:53:28.996Z,45.10
2022-09-23T00:55:38.580Z,45.11
2022-09-23T00:57:40.397Z,45.60
2022-09-23T00:59:42.474Z,45.54
2022-09-23T01:01:44.245Z,45.14
2022-09-23T01:03:46.127Z,45.54
2022-09-23T01:05:47.833Z,45.55
2022-09-23T01:07:49.484Z,45.26
2022-09-23T01:09:51.261Z,45.20
2022-09-23T01:12:00.712Z,45.53
2022-09-23T01:14:23.982Z,45.29
2022-09-23T01:16:54.177Z,45.19
2022-09-23T01:19:31.260Z,45.32
2022-09-23T01:21:43.923Z,45.21
2022-09-23T01:24:00.198Z,45.16
2022-09-23T01:26:20.406Z,45.19
2022-09-23T01:28:30.764Z,45.17
2022-09-23T01:30:59.870Z,45.58
2022-09-23T01:33:03.021Z,45.34
2022-09-23T01:35:15.712Z,45.51
2022-09-23T01:37:29.207Z,45.73
2022-09-23T01:39:38.045Z,45.16
2022-09-23T01:41:50.604Z,45.21
2022-09-23T01:44:00.150Z,45.41
2022-09-23T01:46:01.838Z,45.75
2022-09-23T01:48:09.707Z,45.28
2022-09-23T01:50:22.792Z,45.67
2022-09-23T01:52:39.651Z,45.32
2022-09-23T01:55:05.131Z,45.37
2022-09-23T01:57:16.239Z,45.58
2022-09-23T01:59:18.953Z,45.35
2022-09-23T02:01:46.265Z,45.54
2022-09-23T02:03:55.031Z,45.51
2022-09-23T02:06:00.461Z,45.46
2022-09-23T02:08:06.330Z,45.49
2022-09-23T02:10:18.870Z,45.21
2022-09-23T02:12:20.955Z,45.41
2022-09-23T02:14:38.342Z,45.22
2022-09-23T02:16:42.699Z,45.55
2022-09-23T02:18:57.410Z,45.14
2022-09-23T02:21:02.706Z,45.48
2022-09-23T02:23:07.275Z,45.52
2022-09-23T02:25:09.137Z,45.69
2022-09-23T02:27:33.799Z,45.23
2022-09-23T02:29:54.119Z,45.49
2022-09-23T02:32:18.622Z,44.97
2022-09-23T02:34:40.137Z,45.18
2022-09-23T02:36:49.638Z,45.38
2022-09-23T02:38:54.663Z,45.40
2022-09-23T02:41:00.767Z,45.41
2022-09-23T02:43:08.322Z,45.34
2022-09-23T02:45:09.980Z,45.30
2022-09-23T02:47:11.776Z,45.43
2022-09-23T02:49:23.294Z,45.44
2022-09-23T02:51:24.986Z,45.39
2022-09-23T02:53:26.729Z,45.34
2022-09-23T02:55:29.634Z,45.56
2022-09-23T02:57:31.394Z,45.11
2022-09-23T02:59:33.076Z,45.54
2022-09-23T03:01:43.827Z,45.61
2022-09-23T03:04:06.803Z,45.24
2022-09-23T03:06:16.074Z,45.25
2022-09-23T03:08:51.221Z,45.18
2022-09-23T03:11:21.910Z,45.55
2022-09-23T03:13:46.235Z,45.24
2022-09-23T03:15:59.540Z,45.29
2022-09-23T03:18:25.431Z,45.40
2022-09-23T03:20:41.935Z,45.37
2022-09-23T03:22:46.988Z,45.68
2022-09-23T03:24:53.771Z,45.55
2022-09-23T03:26:55.827Z,45.19
2022-09-23T03:28:57.529Z,45.44
2022-09-23T03:30:59.253Z,45.74
2022-09-23T03:33:00.997Z,45.59
2022-09-23T03:35:03.682Z,45.54
2022-09-23T03:37:12.666Z,45.75
2022-09-23T03:39:18.825Z,45.43
2022-09-23T03:41:28.344Z,45.94
2022-09-23T03:43:30.643Z,45.81
2022-09-23T03:45:33.212Z,45.96
2022-09-23T03:47:35.121Z,46.03
2022-09-23T03:49:37.474Z,45.76
2022-09-23T03:51:42.746Z,45.77
2022-09-23T03:53:46.307Z,45.92
2022-09-23T03:55:47.973Z,45.82
2022-09-23T03:57:49.652Z,45.90
2022-09-23T03:59:51.498Z,45.63
2022-09-23T04:01:53.621Z,45.23
2022-09-23T04:03:55.348Z,45.25
2022-09-23T04:05:57.031Z,45.29
2022-09-23T04:07:58.730Z,45.42
2022-09-23T04:10:00.404Z,44.96
2022-09-23T04:12:02.190Z,44.99
2022-09-23T04:14:03.887Z,45.03
2022-09-23T04:16:05.825Z,44.98
2022-09-23T04:18:07.586Z,44.90
2022-09-23T04:20:09.621Z,44.85
2022-09-23T04:22:11.401Z,45.01
2022-09-23T04:24:13.347Z,45.46
2022-09-23T04:26:15.134Z,45.43
2022-09-23T04:28:16.853Z,45.17
2022-09-23T04:30:18.571Z,45.22
2022-09-23T04:32:20.270Z,45.18
2022-09-23T04:34:22.087Z,44.53
2022-09-23T04:36:23.966Z,44.79
2022-09-23T04:38:25.780Z,45.35
2022-09-23T04:40:27.748Z,45.15
2022-09-23T04:42:29.604Z,44.81
2022-09-23T04:44:31.320Z,44.67
2022-09-23T04:46:33.929Z,44.93
2022-09-23T04:48:36.309Z,44.81
2022-09-23T04:50:38.174Z,44.59
2022-09-23T04:52:39.896Z,44.76
2022-09-23T04:54:41.597Z,44.66
2022-09-23T04:56:43.368Z,44.49
2022-09-23T04:58:45.120Z,44.10
2022-09-23T05:00:46.842Z,44.08
2022-09-23T05:02:49.218Z,44.31
2022-09-23T05:04:50.868Z,44.03
2022-09-23T05:06:52.577Z,44.04
2022-09-23T05:08:54.842Z,43.88
2022-09-23T05:10:57.903Z,43.91
2022-09-23T05:12:59.604Z,44.03
2022-09-23T05:15:01.323Z,44.03
2022-09-23T05:17:03.087Z,43.95
2022-09-23T05:19:04.859Z,43.83
2022-09-23T05:21:06.768Z,44.00
2022-09-23T05:23:08.474Z,43.89
2022-09-23T05:25:10.172Z,43.78
2022-09-23T05:27:11.848Z,43.60
2022-09-23T05:29:13.629Z,43.44
2022-09-23T05:31:20.066Z,43.91
2022-09-23T05:33:22.447Z,43.58
2022-09-23T05:35:24.290Z,43.73
2022-09-23T05:37:26.025Z,43.70
2022-09-23T05:39:27.724Z,43.82
2022-09-23T05:41:29.445Z,43.42
2022-09-23T05:43:31.827Z,43.61
2022-09-23T05:45:33.672Z,43.55
2022-09-23T05:47:35.410Z,43.39
2022-09-23T05:49:58.191Z,43.41
2022-09-23T05:51:58.798Z,44.07
2022-09-23T05:54:00.709Z,44.00
2022-09-23T05:58:09.439Z,44.07
2022-09-23T06:00:11.557Z,43.62
2022-09-23T06:02:13.550Z,43.47
2022-09-23T06:04:15.247Z,43.58
2022-09-23T06:06:18.456Z,43.53
2022-09-23T06:08:20.238Z,43.47
2022-09-23T06:10:21.935Z,43.42
2022-09-23T06:12:23.637Z,43.32
2022-09-23T06:14:25.306Z,43.41
2022-09-23T06:16:27.128Z,43.60
2022-09-23T06:18:28.899Z,43.27
2022-09-23T06:20:30.544Z,43.46
2022-09-23T06:22:33.969Z,43.70
2022-09-23T06:24:37.697Z,43.14
2022-09-23T06:26:39.349Z,43.38
2022-09-23T06:28:41.969Z,43.34
2022-09-23T06:30:43.671Z,43.63
2022-09-23T06:32:51.308Z,43.89
2022-09-23T06:34:52.922Z,43.64
2022-09-23T06:36:54.639Z,43.59
2022-09-23T06:38:56.317Z,43.78
2022-09-23T06:40:58.252Z,43.70
2022-09-23T06:43:00.782Z,43.18
2022-09-23T06:45:02.487Z,43.70
2022-09-23T06:47:04.342Z,43.50
2022-09-23T06:49:06.123Z,43.38
2022-09-23T06:51:07.886Z,43.45
2022-09-23T06:53:09.539Z,43.61
2022-09-23T06:55:11.192Z,43.45
2022-09-23T06:57:12.911Z,43.24
2022-09-23T06:59:14.627Z,43.02
2022-09-23T07:01:17.165Z,43.49
2022-09-23T07:03:18.970Z,43.45
2022-09-23T07:05:20.841Z,43.22
2022-09-23T07:07:22.602Z,43.11
2022-09-23T07:09:24.369Z,43.55
2022-09-23T07:11:26.611Z,43.56
2022-09-23T07:13:28.453Z,43.50
2022-09-23T07:15:30.151Z,43.17
2022-09-23T07:17:31.814Z,43.57
2022-09-23T07:19:33.444Z,43.32
2022-09-23T07:21:35.160Z,43.37
2022-09-23T07:23:36.891Z,43.30
2022-09-23T07:25:38.589Z,43.68
2022-09-23T07:27:40.266Z,43.71
2022-09-23T07:29:48.778Z,43.29
2022-09-23T07:31:50.955Z,43.37
2022-09-23T07:33:55.994Z,43.53
2022-09-23T07:35:57.745Z,43.77
2022-09-23T07:37:59.814Z,43.19
2022-09-23T07:40:01.741Z,43.49
2022-09-23T07:42:04.101Z,43.40
2022-09-23T07:44:05.817Z,43.13
2022-09-23T07:46:13.435Z,42.83
2022-09-23T07:48:15.237Z,43.14
2022-09-23T07:50:17.132Z,43.37
2022-09-23T07:52:18.876Z,43.05
2022-09-23T07:54:20.851Z,43.06
2022-09-23T07:56:26.425Z,42.97
2022-09-23T07:58:28.108Z,43.17
2022-09-23T08:00:29.873Z,42.95
2022-09-23T08:02:31.592Z,42.71
2022-09-23T08:04:33.493Z,42.95
2022-09-23T08:06:35.228Z,42.77
2022-09-23T08:08:37.130Z,43.24
2022-09-23T08:10:38.872Z,42.77
2022-09-23T08:12:40.763Z,43.22
2022-09-23T08:14:42.556Z,43.28
2022-09-23T08:16:44.908Z,43.07
2022-09-23T08:18:46.839Z,42.90
2022-09-23T08:20:48.864Z,42.80
2022-09-23T08:22:51.089Z,43.17
2022-09-23T08:24:54.701Z,43.09
2022-09-23T08:26:58.334Z,43.18
2022-09-23T08:29:00.481Z,42.84
2022-09-23T08:31:02.270Z,42.92
2022-09-23T08:33:04.133Z,42.29
2022-09-23T08:35:06.282Z,42.95
2022-09-23T08:37:10.912Z,42.64
2022-09-23T08:39:19.178Z,42.89
2022-09-23T08:41:29.934Z,42.78
2022-09-23T08:43:32.991Z,42.89
2022-09-23T08:45:35.108Z,42.98
2022-09-23T08:47:44.168Z,42.62
2022-09-23T08:50:09.243Z,42.86
2022-09-23T08:52:21.140Z,42.62
2022-09-23T08:54:22.947Z,42.64
2022-09-23T08:56:24.663Z,42.73
2022-09-23T08:58:46.156Z,42.29
2022-09-23T09:01:10.940Z,42.80
2022-09-23T09:03:20.113Z,42.67
2022-09-23T09:05:25.870Z,42.70
2022-09-23T09:07:38.072Z,42.66
2022-09-23T09:09:59.559Z,42.87
2022-09-23T09:12:29.327Z,42.81
2022-09-23T09:15:01.865Z,42.59
2022-09-23T09:17:49.567Z,42.80
2022-09-23T09:20:02.308Z,42.61
2022-09-23T09:22:03.980Z,42.63
2022-09-23T09:24:12.518Z,42.74
2022-09-23T09:26:29.606Z,42.44
2022-09-23T09:28:46.760Z,42.65
2022-09-23T09:30:52.867Z,42.17
2022-09-23T09:32:54.433Z,42.34
2022-09-23T09:34:58.454Z,42.31
2022-09-23T09:37:11.729Z,42.68
2022-09-23T09:39:16.142Z,42.62
2022-09-23T09:41:17.946Z,42.60
2022-09-23T09:43:19.802Z,42.35
2022-09-23T09:45:53.860Z,42.34
2022-09-23T09:48:10.606Z,42.85
2022-09-23T09:50:13.139Z,42.50
2022-09-23T09:52:19.524Z,42.82
2022-09-23T09:54:23.993Z,42.75
2022-09-23T09:56:31.268Z,42.84
2022-09-23T09:58:35.881Z,42.80
2022-09-23T10:00:42.748Z,42.25
2022-09-23T10:02:44.571Z,42.51
2022-09-23T10:04:46.302Z,42.48
2022-09-23T10:07:15.383Z,42.72
2022-09-23T10:09:17.611Z,42.37
2022-09-23T10:11:19.296Z,42.26
2022-09-23T10:13:24.044Z,42.57
2022-09-23T10:15:32.738Z,42.28
2022-09-23T10:17:34.502Z,42.16
2022-09-23T10:19:36.441Z,42.17
2022-09-23T10:21:38.082Z,42.50
2022-09-23T10:23:47.764Z,41.93
2022-09-23T10:26:02.513Z,41.93
2022-09-23T10:28:24.246Z,42.18
2022-09-23T10:30:27.007Z,42.28
2022-09-23T10:32:33.092Z,42.03
2022-09-23T10:34:34.757Z,42.12
2022-09-23T10:36:37.666Z,42.20
2022-09-23T10:38:41.735Z,42.14
2022-09-23T10:40:43.733Z,41.71
2022-09-23T10:43:36.414Z,41.88
2022-09-23T10:45:43.190Z,41.86
2022-09-23T10:47:58.439Z,41.43
2022-09-23T10:50:06.998Z,41.81
2022-09-23T10:52:11.447Z,42.18
2022-09-23T10:54:22.072Z,42.21
2022-09-23T10:56:33.882Z,41.80
2022-09-23T10:58:57.071Z,42.11
2022-09-23T11:01:18.936Z,41.75
2022-09-23T11:03:29.642Z,41.70
2022-09-23T11:05:36.624Z,42.13
2022-09-23T11:08:05.972Z,41.64
2022-09-23T11:10:41.872Z,41.72
2022-09-23T11:12:57.323Z,41.68
2022-09-23T11:15:04.083Z,42.12
2022-09-23T11:17:26.723Z,41.75
2022-09-23T11:19:31.066Z,41.65
2022-09-23T11:22:04.715Z,41.62
2022-09-23T11:24:48.170Z,41.79
2022-09-23T11:26:51.380Z,42.02
2022-09-23T11:29:13.973Z,41.98
2022-09-23T11:31:37.891Z,42.11
2022-09-23T11:33:51.708Z,42.01
2022-09-23T11:35:59.344Z,41.90
2022-09-23T11:38:08.031Z,41.88
2022-09-23T11:40:21.798Z,42.11
2022-09-23T11:42:26.049Z,41.77
2022-09-23T11:44:37.672Z,41.90
2022-09-23T11:46:42.249Z,41.80
2022-09-23T11:48:52.092Z,41.85
2022-09-23T11:50:56.310Z,42.02
2022-09-23T11:53:15.808Z,41.76
2022-09-23T11:55:23.057Z,41.79
2022-09-23T11:57:48.885Z,42.14
2022-09-23T11:59:55.066Z,42.13
2022-09-23T12:02:21.124Z,41.82
2022-09-23T12:04:44.230Z,41.59
2022-09-23T12:07:11.812Z,42.79
2022-09-23T12:09:30.993Z,42.36
2022-09-23T12:11:58.575Z,42.58
2022-09-23T12:14:03.313Z,43.21
2022-09-23T12:16:32.864Z,42.84
2022-09-23T12:18:52.533Z,43.22
2022-09-23T12:21:07.063Z,43.89
2022-09-23T12:23:13.885Z,43.62
2022-09-23T12:25:34.311Z,44.19
2022-09-23T12:27:47.658Z,44.37
2022-09-23T12:29:54.293Z,45.01
2022-09-23T12:31:55.990Z,44.92
2022-09-23T12:34:02.056Z,45.66
2022-09-23T12:36:08.313Z,45.06
2022-09-23T12:38:34.231Z,44.61
2022-09-23T12:40:36.471Z,44.25
2022-09-23T12:42:41.626Z,45.24
2022-09-23T12:44:44.851Z,45.25
2022-09-23T12:46:46.653Z,45.56
2022-09-23T12:48:58.732Z,44.76
2022-09-23T12:51:03.006Z,44.74
2022-09-23T12:53:23.111Z,44.46
2022-09-23T12:55:44.931Z,44.97
2022-09-23T12:57:46.633Z,44.79
2022-09-23T12:59:59.401Z,44.65
2022-09-23T13:02:34.749Z,44.39
2022-09-23T13:04:42.421Z,44.06
2022-09-23T13:07:06.358Z,44.32
2022-09-23T13:09:21.334Z,43.97
2022-09-23T13:11:27.738Z,43.50
2022-09-23T13:13:41.735Z,43.41
2022-09-23T13:15:43.439Z,43.13
2022-09-23T13:17:45.234Z,43.19
2022-09-23T13:19:46.894Z,45.24
2022-09-23T13:21:48.474Z,43.74
2022-09-23T13:24:19.716Z,43.35
2022-09-23T13:26:21.344Z,42.42
2022-09-23T13:28:30.956Z,42.69
2022-09-23T13:30:32.718Z,42.60
2022-09-23T13:32:38.006Z,42.32
2022-09-23T13:34:39.721Z,42.38
2022-09-23T13:36:45.559Z,42.74
2022-09-23T13:38:47.440Z,43.11
2022-09-23T13:40:49.325Z,42.26
2022-09-23T13:43:09.714Z,42.70
2022-09-23T13:45:18.595Z,42.06
2022-09-23T13:47:20.292Z,42.25
2022-09-23T13:49:22.490Z,41.81
2022-09-23T13:51:28.840Z,43.57
2022-09-23T13:53:30.508Z,42.04
2022-09-23T13:55:33.725Z,42.74
2022-09-23T13:57:35.704Z,43.71
2022-09-23T13:59:38.249Z,43.18
2022-09-23T14:01:40.001Z,43.66
2022-09-23T14:03:41.711Z,43.66
2022-09-23T14:05:43.465Z,43.61
2022-09-23T14:07:45.220Z,43.87
2022-09-23T14:09:50.213Z,42.90
2022-09-23T14:11:52.040Z,41.53
2022-09-23T14:13:54.032Z,41.55
2022-09-23T14:15:57.543Z,41.74
2022-09-23T14:18:03.589Z,42.43
2022-09-23T14:20:05.645Z,42.21
2022-09-23T14:22:30.234Z,42.12
2022-09-23T14:24:36.192Z,42.55
2022-09-23T14:26:37.871Z,41.76
2022-09-23T14:28:39.640Z,41.84
2022-09-23T14:30:41.368Z,41.86
2022-09-23T14:32:43.184Z,41.39
2022-09-23T14:35:00.385Z,41.51
2022-09-23T14:37:16.653Z,42.28
2022-09-23T14:39:18.615Z,42.07
2022-09-23T14:41:21.739Z,41.71
2022-09-23T14:43:25.375Z,42.21
2022-09-23T14:45:30.171Z,41.63
2022-09-23T14:47:33.798Z,41.78
2022-09-23T14:49:35.587Z,42.51
2022-09-23T14:51:44.331Z,42.04
2022-09-23T14:53:46.080Z,42.82
2022-09-23T14:55:48.720Z,42.66
2022-09-23T14:58:14.713Z,42.42
2022-09-23T15:00:18.068Z,42.29
2022-09-23T15:02:29.760Z,42.23
2022-09-23T15:04:31.866Z,42.24
2022-09-23T15:06:36.526Z,42.17
2022-09-23T15:08:39.542Z,42.10
2022-09-23T15:10:41.661Z,42.30
2022-09-23T15:12:45.071Z,42.76
2022-09-23T15:14:54.466Z,43.00
2022-09-23T15:16:56.255Z,42.98
2022-09-23T15:18:59.158Z,42.58
2022-09-23T15:21:12.327Z,42.73
2022-09-23T15:23:51.914Z,42.56
2022-09-23T15:25:53.633Z,43.07
2022-09-23T15:28:13.099Z,42.85
2022-09-23T15:30:15.794Z,43.02
2022-09-23T15:32:17.650Z,43.19
2022-09-23T15:34:19.381Z,42.73
2022-09-23T15:36:25.001Z,43.10
2022-09-23T15:38:26.794Z,42.98
2022-09-23T15:40:33.192Z,43.31
2022-09-23T15:42:35.086Z,43.09
2022-09-23T15:44:36.950Z,43.52
2022-09-23T15:46:38.919Z,43.05
2022-09-23T15:48:42.374Z,43.02
2022-09-23T15:50:45.470Z,42.71
2022-09-23T15:52:47.178Z,42.42
2022-09-23T15:54:48.857Z,42.32
2022-09-23T15:56:50.706Z,40.58
2022-09-23T15:58:54.984Z,40.31
2022-09-23T16:00:57.049Z,40.33
2022-09-23T16:02:58.977Z,39.46
2022-09-23T16:05:01.182Z,39.21
2022-09-23T16:07:02.987Z,38.79
2022-09-23T16:09:05.942Z,38.99
2022-09-23T16:11:28.723Z,39.17
2022-09-23T16:13:32.222Z,39.25
2022-09-23T16:15:35.240Z,38.56
2022-09-23T16:17:37.033Z,39.12
2022-09-23T16:19:38.849Z,38.95
2022-09-23T16:21:40.709Z,39.10
2022-09-23T16:23:43.714Z,39.50
2022-09-23T16:25:45.742Z,38.70
2022-09-23T16:27:47.496Z,38.72
2022-09-23T16:29:52.294Z,38.67
2022-09-23T16:31:54.262Z,38.98
2022-09-23T16:33:56.080Z,40.51
2022-09-23T16:35:58.793Z,39.54
2022-09-23T16:38:00.601Z,38.83
2022-09-23T16:40:03.100Z,39.30
2022-09-23T16:42:04.800Z,38.79
2022-09-23T16:44:07.253Z,40.12
2022-09-23T16:46:10.243Z,40.19
2022-09-23T16:48:12.103Z,39.99
2022-09-23T16:50:15.888Z,39.82
2022-09-23T16:52:17.612Z,38.66
2022-09-23T16:54:19.358Z,38.35
2022-09-23T16:56:27.305Z,38.49
2022-09-23T16:58:30.163Z,38.25
2022-09-23T17:00:31.868Z,38.60
2022-09-23T17:02:33.952Z,37.41
2022-09-23T17:04:37.150Z,37.51
2022-09-23T17:06:49.083Z,38.46
2022-09-23T17:08:51.030Z,39.83
2022-09-23T17:10:58.923Z,37.88
2022-09-23T17:13:00.627Z,37.43
2022-09-23T17:15:06.149Z,37.99
2022-09-23T17:17:07.960Z,38.25
2022-09-23T17:19:10.770Z,39.01
2022-09-23T17:21:12.480Z,37.75
2022-09-23T17:23:14.541Z,38.55
2022-09-23T17:25:16.344Z,39.10
2022-09-23T17:27:18.198Z,39.03
2022-09-23T17:29:20.341Z,38.54
2022-09-23T17:31:22.759Z,38.10
2022-09-23T17:33:28.442Z,38.14
2022-09-23T17:35:33.361Z,37.84
2022-09-23T17:37:35.032Z,38.13
2022-09-23T17:39:36.750Z,37.80
2022-09-23T17:41:38.670Z,38.83
2022-09-23T17:43:40.655Z,38.50
2022-09-23T17:45:42.557Z,37.98
2022-09-23T17:47:44.216Z,38.52
2022-09-23T17:49:46.063Z,37.84
2022-09-23T17:51:47.766Z,38.23
2022-09-23T17:53:49.765Z,37.87
2022-09-23T17:55:58.031Z,37.99
2022-09-23T17:57:59.805Z,37.69
2022-09-23T18:00:01.883Z,38.03
2022-09-23T18:02:03.836Z,39.55
2022-09-23T18:04:06.041Z,40.62
2022-09-23T18:06:14.656Z,40.70
2022-09-23T18:08:16.604Z,41.45
2022-09-23T18:10:18.524Z,41.51
2022-09-23T18:12:20.368Z,42.32
2022-09-23T18:14:22.691Z,42.36
2022-09-23T18:16:26.760Z,42.25
2022-09-23T18:18:28.833Z,43.00
2022-09-23T18:20:30.580Z,42.66
2022-09-23T18:22:32.274Z,43.26
2022-09-23T18:24:34.255Z,43.37
2022-09-23T18:26:37.449Z,43.54
2022-09-23T18:28:40.467Z,43.47
2022-09-23T18:31:01.394Z,44.88
2022-09-23T18:33:04.016Z,43.61
2022-09-23T18:35:06.612Z,41.82
2022-09-23T18:37:15.269Z,43.19
2022-09-23T18:39:17.747Z,40.47
2022-09-23T18:41:19.795Z,40.36
2022-09-23T18:43:26.116Z,40.13
2022-09-23T18:45:28.306Z,39.62
2022-09-23T18:47:30.067Z,39.64
2022-09-23T18:49:31.928Z,39.82
2022-09-23T18:51:34.855Z,41.40
2022-09-23T18:53:36.790Z,42.03
2022-09-23T18:55:38.557Z,42.73
2022-09-23T18:57:40.362Z,42.89
2022-09-23T18:59:42.430Z,43.00
2022-09-23T19:01:44.644Z,43.11
2022-09-23T19:03:46.435Z,43.47
2022-09-23T19:05:48.198Z,43.49
2022-09-23T19:07:49.868Z,42.87
2022-09-23T19:09:51.753Z,42.88
2022-09-23T19:11:53.696Z,41.88
2022-09-23T19:13:59.393Z,41.86
2022-09-23T19:16:02.431Z,41.71
2022-09-23T19:18:05.152Z,41.56
2022-09-23T19:20:07.734Z,41.08
2022-09-23T19:22:09.646Z,41.66
2022-09-23T19:24:11.574Z,41.55
2022-09-23T19:26:13.613Z,41.38
2022-09-23T19:28:15.417Z,41.34
2022-09-23T19:30:17.326Z,40.99
2022-09-23T19:32:19.066Z,41.76
2022-09-23T19:34:21.476Z,41.67
2022-09-23T19:36:24.621Z,42.74
2022-09-23T19:38:26.676Z,41.43
2022-09-23T19:40:28.624Z,41.19
2022-09-23T19:42:30.422Z,41.81
2022-09-23T19:44:32.081Z,42.09
2022-09-23T19:46:35.315Z,41.81
2022-09-23T19:48:37.213Z,42.10
2022-09-23T19:50:39.588Z,42.00
2022-09-23T19:52:41.234Z,42.00
2022-09-23T19:54:42.961Z,42.08
2022-09-23T19:56:44.805Z,42.04
2022-09-23T19:58:48.352Z,42.08
2022-09-23T20:00:50.187Z,41.98
2022-09-23T20:02:52.003Z,41.83
2022-09-23T20:04:53.734Z,42.25
2022-09-23T20:06:55.516Z,41.92
2022-09-23T20:08:58.677Z,42.00
2022-09-23T20:11:08.987Z,41.80
2022-09-23T20:13:10.617Z,41.87
2022-09-23T20:15:12.430Z,41.77
2022-09-23T20:17:14.211Z,41.59
2022-09-23T20:19:15.985Z,41.53
2022-09-23T20:21:23.883Z,42.17
2022-09-23T20:23:25.664Z,41.63
2022-09-23T20:25:27.415Z,41.82
2022-09-23T20:27:29.358Z,41.53
2022-09-23T20:29:37.630Z,41.76
2022-09-23T20:31:39.364Z,41.56
2022-09-23T20:33:41.135Z,41.77
2022-09-23T20:35:42.861Z,41.76
2022-09-23T20:37:44.592Z,41.61
2022-09-23T20:39:49.605Z,41.55
2022-09-23T20:41:51.379Z,41.92
2022-09-23T20:43:53.962Z,41.53
2022-09-23T20:46:13.733Z,41.61
2022-09-23T20:48:30.552Z,41.68
2022-09-23T20:50:32.257Z,41.51
2022-09-23T20:52:33.947Z,41.53
2022-09-23T20:54:35.628Z,41.80
2022-09-23T20:56:37.307Z,41.54
2022-09-23T20:58:39.059Z,41.77
2022-09-23T21:01:02.963Z,41.85
2022-09-23T21:04:00.186Z,41.42
2022-09-23T21:06:02.484Z,41.47
2022-09-23T21:08:04.179Z,41.70
2022-09-23T21:10:06.746Z,41.66
2022-09-23T21:12:08.451Z,41.82
2022-09-23T21:14:10.159Z,41.66
2022-09-23T21:16:11.943Z,41.72
2022-09-23T21:18:34.822Z,41.87
2022-09-23T21:23:29.290Z,41.59
2022-09-23T21:25:31.214Z,41.45
2022-09-23T21:27:35.830Z,41.64
2022-09-23T21:29:37.505Z,41.59
2022-09-23T21:31:39.310Z,41.53
2022-09-23T21:33:41.028Z,41.44
2022-09-23T21:35:42.765Z,41.33
2022-09-23T21:37:45.197Z,41.54
2022-09-23T21:39:47.015Z,41.68
2022-09-23T21:41:48.674Z,41.62
2022-09-23T21:43:50.385Z,41.79
2022-09-23T21:46:06.175Z,41.50
2022-09-23T21:48:50.989Z,41.49
2022-09-23T21:51:00.192Z,41.31
2022-09-23T21:53:13.797Z,41.57
2022-09-23T21:55:15.580Z,41.45
2022-09-23T21:57:17.256Z,41.79
2022-09-23T21:59:18.913Z,41.56
2022-09-23T22:01:25.370Z,41.43
2022-09-23T22:03:27.547Z,41.34
2022-09-23T22:05:29.266Z,41.55
2022-09-23T22:10:20.504Z,41.74
2022-09-23T22:12:22.264Z,41.34
2022-09-23T22:14:24.261Z,41.46
2022-09-23T22:16:26.225Z,41.38
2022-09-23T22:18:28.267Z,41.39
2022-09-23T22:20:29.978Z,41.31
2022-09-23T22:22:31.623Z,41.61
2022-09-23T22:24:33.348Z,41.57
2022-09-23T22:26:38.892Z,41.40
2022-09-23T22:28:40.639Z,41.62
2022-09-23T22:30:42.472Z,41.53
2022-09-23T22:32:44.187Z,41.51
2022-09-23T22:34:51.130Z,41.86
2022-09-23T22:36:57.959Z,41.53
2022-09-23T22:38:59.624Z,41.42
2022-09-23T22:41:01.364Z,41.55
2022-09-23T22:43:03.121Z,41.50
2022-09-23T22:45:05.272Z,41.49
2022-09-23T22:47:07.055Z,41.35
2022-09-23T22:49:08.876Z,41.50
2022-09-23T22:51:10.496Z,41.39
2022-09-23T22:53:12.533Z,41.54
2022-09-23T22:55:14.201Z,41.42
2022-09-23T22:57:15.890Z,41.35
2022-09-23T22:59:17.565Z,41.63
2022-09-23T23:01:19.410Z,41.65
2022-09-23T23:03:21.234Z,41.43
2022-09-23T23:05:23.020Z,41.45
2022-09-23T23:07:24.707Z,41.23
2022-09-23T23:09:26.566Z,41.33
2022-09-23T23:11:28.263Z,41.41
2022-09-23T23:13:30.299Z,41.38
2022-09-23T23:15:31.920Z,41.19
2022-09-23T23:17:33.595Z,41.67
2022-09-23T23:19:35.828Z,41.36
2022-09-23T23:21:37.576Z,41.22
2022-09-23T23:23:40.655Z,41.57
2022-09-23T23:25:42.368Z,41.23
2022-09-23T23:27:44.031Z,41.46
2022-09-23T23:29:45.772Z,41.52
2022-09-23T23:31:47.817Z,41.35
2022-09-23T23:33:49.659Z,41.44
2022-09-23T23:35:51.351Z,41.45
2022-09-23T23:37:52.997Z,41.07
2022-09-23T23:39:54.707Z,41.08
2022-09-23T23:41:57.180Z,41.52
2022-09-23T23:43:59.639Z,41.21
2022-09-23T23:46:01.302Z,40.97
2022-09-23T23:48:03.043Z,41.44
2022-09-23T23:50:05.020Z,41.35
2022-09-23T23:52:06.714Z,41.17
2022-09-23T23:54:08.454Z,41.04
2022-09-23T23:56:15.247Z,41.22
2022-09-23T23:58:17.062Z,40.99
